Terminal Aerodrome Forecast
Issued by NWS Goodland, KS

Home | Current Version | Previous Version | Text Only | Print | Product List | Glossary On
Versions: 1 2 3 4 5 6 7 8 9 10 11 12 13 14 15 16 17
000
FTUS43 KGLD 201734
TAFGLD
TAF
KGLD 201734Z 2018/2118 17009KT P6SM SKC
     FM202000 16015G20KT P6SM SKC
     FM210000 19010KT P6SM SKC
     FM211100 19010KT 4SM BR BKN005
     FM211600 17015G20KT 6SM BR OVC007=

USA.gov is the U.S. government's official web portal to all federal, state and local government web resources and services.